Terminal Aerodrome Forecast
Issued by NWS

Home | Current Version | Previous Version | Text Only | Print | Product List | Glossary On
Versions: 1 2 3 4 5 6 7 8 9 10 11 12 13 14
245
FTUS42 KMLB 250537
TAFLEE
TAF
KLEE 250537Z 2506/2606 VRB04KT P6SM FEW050 SCT250
     FM251600 07005KT P6SM SCT025 SCT250
     FM252200 10006KT P6SM VCTS SCT030CB BKN100
     FM260000 11006KT P6SM FEW050 BKN250=

USA.gov is the U.S. government's official web portal to all federal, state and local government web resources and services.